sensor_id;sensor_type;location;lat;lon;timestamp;P1;durP1;ratioP1;P2;durP2;ratioP2
42036;SDS011;30340;52.004;5.908;2023-06-26T00:02:11;3.40;;;3.03;;
42036;SDS011;30340;52.004;5.908;2023-06-26T00:04:37;3.50;;;3.17;;
42036;SDS011;30340;52.004;5.908;2023-06-26T00:07:03;3.47;;;3.17;;
42036;SDS011;30340;52.004;5.908;2023-06-26T00:09:29;3.80;;;3.20;;
42036;SDS011;30340;52.004;5.908;2023-06-26T00:11:55;3.92;;;3.47;;
42036;SDS011;30340;52.004;5.908;2023-06-26T00:14:21;3.90;;;3.50;;
42036;SDS011;30340;52.004;5.908;2023-06-26T00:16:46;3.60;;;3.28;;
42036;SDS011;30340;52.004;5.908;2023-06-26T00:19:17;3.63;;;3.25;;
42036;SDS011;30340;52.004;5.908;2023-06-26T00:21:43;3.97;;;3.40;;
42036;SDS011;30340;52.004;5.908;2023-06-26T00:24:15;3.50;;;3.20;;
42036;SDS011;30340;52.004;5.908;2023-06-26T00:26:41;3.72;;;3.35;;
42036;SDS011;30340;52.004;5.908;2023-06-26T00:29:07;3.58;;;3.05;;
42036;SDS011;30340;52.004;5.908;2023-06-26T00:31:32;3.78;;;3.47;;
42036;SDS011;30340;52.004;5.908;2023-06-26T00:33:59;4.20;;;3.80;;
42036;SDS011;30340;52.004;5.908;2023-06-26T00:36:25;4.10;;;3.50;;
42036;SDS011;30340;52.004;5.908;2023-06-26T00:38:51;4.18;;;3.10;;
42036;SDS011;30340;52.004;5.908;2023-06-26T00:41:17;3.38;;;3.08;;
42036;SDS011;30340;52.004;5.908;2023-06-26T00:43:43;3.28;;;2.97;;
42036;SDS011;30340;52.004;5.908;2023-06-26T00:46:09;4.15;;;3.10;;
42036;SDS011;30340;52.004;5.908;2023-06-26T00:48:37;4.00;;;3.60;;
42036;SDS011;30340;52.004;5.908;2023-06-26T00:51:04;3.83;;;3.42;;
42036;SDS011;30340;52.004;5.908;2023-06-26T00:53:30;5.22;;;3.50;;
42036;SDS011;30340;52.004;5.908;2023-06-26T00:55:56;3.90;;;3.47;;
42036;SDS011;30340;52.004;5.908;2023-06-26T00:58:22;3.85;;;3.45;;
42036;SDS011;30340;52.004;5.908;2023-06-26T01:00:50;4.47;;;4.07;;
42036;SDS011;30340;52.004;5.908;2023-06-26T01:03:16;4.72;;;4.22;;
42036;SDS011;30340;52.004;5.908;2023-06-26T01:05:42;3.88;;;3.40;;
42036;SDS011;30340;52.004;5.908;2023-06-26T01:08:10;4.40;;;3.97;;
42036;SDS011;30340;52.004;5.908;2023-06-26T01:10:37;5.63;;;4.13;;
42036;SDS011;30340;52.004;5.908;2023-06-26T01:13:03;4.50;;;4.03;;
42036;SDS011;30340;52.004;5.908;2023-06-26T01:15:29;5.88;;;4.60;;
42036;SDS011;30340;52.004;5.908;2023-06-26T01:17:55;4.63;;;4.22;;
42036;SDS011;30340;52.004;5.908;2023-06-26T01:20:26;4.57;;;4.00;;
42036;SDS011;30340;52.004;5.908;2023-06-26T01:23:07;5.18;;;4.45;;
42036;SDS011;30340;52.004;5.908;2023-06-26T01:29:01;4.97;;;4.00;;
42036;SDS011;30340;52.004;5.908;2023-06-26T01:31:29;4.38;;;3.97;;
42036;SDS011;30340;52.004;5.908;2023-06-26T01:33:56;4.88;;;3.83;;
42036;SDS011;30340;52.004;5.908;2023-06-26T01:36:24;4.40;;;4.00;;
42036;SDS011;30340;52.004;5.908;2023-06-26T01:38:49;4.85;;;4.00;;
42036;SDS011;30340;52.004;5.908;2023-06-26T01:41:16;4.22;;;3.78;;
42036;SDS011;30340;52.004;5.908;2023-06-26T01:49:19;6.15;;;4.70;;
42036;SDS011;30340;52.004;5.908;2023-06-26T01:51:55;5.70;;;4.63;;
42036;SDS011;30340;52.004;5.908;2023-06-26T01:54:29;8.23;;;6.20;;
42036;SDS011;30340;52.004;5.908;2023-06-26T01:56:58;5.82;;;5.22;;
42036;SDS011;30340;52.004;5.908;2023-06-26T01:59:25;5.50;;;4.90;;
42036;SDS011;30340;52.004;5.908;2023-06-26T02:01:53;4.93;;;4.43;;
42036;SDS011;30340;52.004;5.908;2023-06-26T02:04:19;6.90;;;5.15;;
42036;SDS011;30340;52.004;5.908;2023-06-26T02:06:45;5.40;;;4.80;;
42036;SDS011;30340;52.004;5.908;2023-06-26T02:09:10;6.07;;;5.35;;
42036;SDS011;30340;52.004;5.908;2023-06-26T02:11:36;7.00;;;4.60;;
42036;SDS011;30340;52.004;5.908;2023-06-26T02:14:01;4.20;;;3.65;;
42036;SDS011;30340;52.004;5.908;2023-06-26T02:16:27;6.00;;;4.88;;
42036;SDS011;30340;52.004;5.908;2023-06-26T02:18:53;5.18;;;4.25;;
42036;SDS011;30340;52.004;5.908;2023-06-26T02:21:19;5.95;;;4.30;;
42036;SDS011;30340;52.004;5.908;2023-06-26T02:23:45;5.53;;;4.13;;
42036;SDS011;30340;52.004;5.908;2023-06-26T02:26:10;5.43;;;3.63;;
42036;SDS011;30340;52.004;5.908;2023-06-26T02:28:36;4.95;;;3.80;;
42036;SDS011;30340;52.004;5.908;2023-06-26T02:31:01;4.50;;;3.45;;
42036;SDS011;30340;52.004;5.908;2023-06-26T02:33:29;4.47;;;3.55;;
42036;SDS011;30340;52.004;5.908;2023-06-26T02:35:55;4.30;;;3.50;;
42036;SDS011;30340;52.004;5.908;2023-06-26T02:38:21;3.50;;;3.00;;
42036;SDS011;30340;52.004;5.908;2023-06-26T02:40:46;4.50;;;2.97;;
42036;SDS011;30340;52.004;5.908;2023-06-26T02:43:12;5.10;;;3.50;;
42036;SDS011;30340;52.004;5.908;2023-06-26T02:45:37;4.75;;;3.10;;
42036;SDS011;30340;52.004;5.908;2023-06-26T02:48:03;4.25;;;3.25;;
42036;SDS011;30340;52.004;5.908;2023-06-26T02:50:28;4.50;;;3.10;;
42036;SDS011;30340;52.004;5.908;2023-06-26T02:52:54;4.90;;;3.00;;
42036;SDS011;30340;52.004;5.908;2023-06-26T02:55:20;5.40;;;2.92;;
42036;SDS011;30340;52.004;5.908;2023-06-26T02:57:46;4.55;;;2.60;;
42036;SDS011;30340;52.004;5.908;2023-06-26T03:00:12;5.38;;;3.30;;
42036;SDS011;30340;52.004;5.908;2023-06-26T03:02:38;4.30;;;3.20;;
42036;SDS011;30340;52.004;5.908;2023-06-26T03:05:04;3.45;;;2.65;;
42036;SDS011;30340;52.004;5.908;2023-06-26T03:07:29;4.18;;;2.40;;
42036;SDS011;30340;52.004;5.908;2023-06-26T03:09:55;3.55;;;2.58;;
42036;SDS011;30340;52.004;5.908;2023-06-26T03:12:21;3.88;;;2.85;;
42036;SDS011;30340;52.004;5.908;2023-06-26T03:14:46;5.05;;;3.10;;
42036;SDS011;30340;52.004;5.908;2023-06-26T03:17:12;4.50;;;2.80;;
42036;SDS011;30340;52.004;5.908;2023-06-26T03:19:37;3.97;;;2.85;;
42036;SDS011;30340;52.004;5.908;2023-06-26T03:22:03;5.63;;;2.97;;
42036;SDS011;30340;52.004;5.908;2023-06-26T03:24:29;3.40;;;2.50;;
42036;SDS011;30340;52.004;5.908;2023-06-26T03:26:54;3.78;;;2.47;;
42036;SDS011;30340;52.004;5.908;2023-06-26T03:29:20;3.53;;;2.47;;
42036;SDS011;30340;52.004;5.908;2023-06-26T03:31:46;4.78;;;2.80;;
42036;SDS011;30340;52.004;5.908;2023-06-26T03:34:11;5.13;;;2.70;;
42036;SDS011;30340;52.004;5.908;2023-06-26T03:36:37;3.85;;;2.63;;
42036;SDS011;30340;52.004;5.908;2023-06-26T03:39:03;5.50;;;3.13;;
42036;SDS011;30340;52.004;5.908;2023-06-26T03:41:29;4.53;;;2.67;;
42036;SDS011;30340;52.004;5.908;2023-06-26T03:43:54;5.82;;;2.67;;
42036;SDS011;30340;52.004;5.908;2023-06-26T03:46:21;4.65;;;2.70;;
42036;SDS011;30340;52.004;5.908;2023-06-26T03:48:47;5.50;;;2.88;;
42036;SDS011;30340;52.004;5.908;2023-06-26T03:51:13;4.55;;;2.42;;
42036;SDS011;30340;52.004;5.908;2023-06-26T03:53:39;5.28;;;2.50;;
42036;SDS011;30340;52.004;5.908;2023-06-26T03:56:05;5.05;;;2.80;;
42036;SDS011;30340;52.004;5.908;2023-06-26T03:58:30;4.00;;;2.80;;
42036;SDS011;30340;52.004;5.908;2023-06-26T04:00:56;5.60;;;2.92;;
42036;SDS011;30340;52.004;5.908;2023-06-26T04:03:23;5.43;;;2.95;;
42036;SDS011;30340;52.004;5.908;2023-06-26T04:05:49;4.68;;;2.90;;
42036;SDS011;30340;52.004;5.908;2023-06-26T04:08:14;5.07;;;2.67;;
42036;SDS011;30340;52.004;5.908;2023-06-26T04:10:40;7.22;;;2.90;;
42036;SDS011;30340;52.004;5.908;2023-06-26T04:13:05;6.57;;;3.03;;
42036;SDS011;30340;52.004;5.908;2023-06-26T04:15:31;5.55;;;2.78;;
42036;SDS011;30340;52.004;5.908;2023-06-26T04:17:57;4.75;;;2.78;;
42036;SDS011;30340;52.004;5.908;2023-06-26T04:20:22;5.65;;;2.75;;
42036;SDS011;30340;52.004;5.908;2023-06-26T04:22:48;5.85;;;2.70;;
42036;SDS011;30340;52.004;5.908;2023-06-26T04:25:13;5.55;;;2.90;;
42036;SDS011;30340;52.004;5.908;2023-06-26T04:27:39;6.38;;;3.28;;
42036;SDS011;30340;52.004;5.908;2023-06-26T04:30:05;7.03;;;3.33;;
42036;SDS011;30340;52.004;5.908;2023-06-26T04:32:31;5.43;;;2.67;;
42036;SDS011;30340;52.004;5.908;2023-06-26T04:34:56;6.70;;;3.15;;
42036;SDS011;30340;52.004;5.908;2023-06-26T04:37:22;6.32;;;2.85;;
42036;SDS011;30340;52.004;5.908;2023-06-26T04:39:49;5.65;;;3.55;;
42036;SDS011;30340;52.004;5.908;2023-06-26T04:42:15;5.70;;;3.00;;
42036;SDS011;30340;52.004;5.908;2023-06-26T04:44:40;6.35;;;2.83;;
42036;SDS011;30340;52.004;5.908;2023-06-26T04:47:06;7.68;;;3.53;;
42036;SDS011;30340;52.004;5.908;2023-06-26T04:49:33;6.22;;;3.05;;
42036;SDS011;30340;52.004;5.908;2023-06-26T04:51:58;4.63;;;2.90;;
42036;SDS011;30340;52.004;5.908;2023-06-26T04:54:25;7.07;;;3.20;;
42036;SDS011;30340;52.004;5.908;2023-06-26T04:56:51;5.43;;;2.95;;
42036;SDS011;30340;52.004;5.908;2023-06-26T04:59:16;7.95;;;3.13;;
42036;SDS011;30340;52.004;5.908;2023-06-26T05:01:42;5.88;;;3.25;;
42036;SDS011;30340;52.004;5.908;2023-06-26T05:04:12;8.15;;;3.38;;
42036;SDS011;30340;52.004;5.908;2023-06-26T05:06:38;4.80;;;2.83;;
42036;SDS011;30340;52.004;5.908;2023-06-26T05:09:03;11.07;;;4.25;;
42036;SDS011;30340;52.004;5.908;2023-06-26T05:11:29;8.55;;;3.58;;
42036;SDS011;30340;52.004;5.908;2023-06-26T05:13:54;6.22;;;3.40;;
42036;SDS011;30340;52.004;5.908;2023-06-26T05:16:20;6.80;;;3.00;;
42036;SDS011;30340;52.004;5.908;2023-06-26T05:18:45;8.02;;;3.40;;
42036;SDS011;30340;52.004;5.908;2023-06-26T05:21:11;8.52;;;3.33;;
42036;SDS011;30340;52.004;5.908;2023-06-26T05:23:37;6.28;;;3.45;;
42036;SDS011;30340;52.004;5.908;2023-06-26T05:26:03;6.50;;;3.33;;
42036;SDS011;30340;52.004;5.908;2023-06-26T05:28:29;7.82;;;3.38;;
42036;SDS011;30340;52.004;5.908;2023-06-26T05:30:58;7.05;;;2.95;;
42036;SDS011;30340;52.004;5.908;2023-06-26T05:33:24;6.43;;;3.33;;
42036;SDS011;30340;52.004;5.908;2023-06-26T05:35:52;5.47;;;2.90;;
42036;SDS011;30340;52.004;5.908;2023-06-26T05:38:18;5.63;;;2.97;;
42036;SDS011;30340;52.004;5.908;2023-06-26T05:40:44;7.32;;;3.22;;
42036;SDS011;30340;52.004;5.908;2023-06-26T05:43:10;5.45;;;3.20;;
42036;SDS011;30340;52.004;5.908;2023-06-26T05:45:35;6.53;;;3.17;;
42036;SDS011;30340;52.004;5.908;2023-06-26T05:48:01;4.93;;;2.58;;
42036;SDS011;30340;52.004;5.908;2023-06-26T05:50:27;6.70;;;2.85;;
42036;SDS011;30340;52.004;5.908;2023-06-26T05:52:53;8.75;;;3.78;;
42036;SDS011;30340;52.004;5.908;2023-06-26T05:55:19;5.93;;;2.90;;
42036;SDS011;30340;52.004;5.908;2023-06-26T05:57:46;5.30;;;2.90;;
42036;SDS011;30340;52.004;5.908;2023-06-26T06:00:12;5.75;;;2.95;;
42036;SDS011;30340;52.004;5.908;2023-06-26T06:02:39;7.32;;;3.13;;
42036;SDS011;30340;52.004;5.908;2023-06-26T06:05:06;7.80;;;3.15;;
42036;SDS011;30340;52.004;5.908;2023-06-26T06:07:32;4.43;;;2.53;;
42036;SDS011;30340;52.004;5.908;2023-06-26T06:09:59;5.07;;;2.40;;
42036;SDS011;30340;52.004;5.908;2023-06-26T06:12:25;5.30;;;2.70;;
42036;SDS011;30340;52.004;5.908;2023-06-26T06:14:51;6.13;;;2.70;;
42036;SDS011;30340;52.004;5.908;2023-06-26T06:17:17;5.95;;;2.30;;
42036;SDS011;30340;52.004;5.908;2023-06-26T06:19:43;7.63;;;2.80;;
42036;SDS011;30340;52.004;5.908;2023-06-26T06:22:10;4.57;;;2.40;;
42036;SDS011;30340;52.004;5.908;2023-06-26T06:24:35;3.40;;;2.53;;
42036;SDS011;30340;52.004;5.908;2023-06-26T06:27:01;3.83;;;2.20;;
42036;SDS011;30340;52.004;5.908;2023-06-26T06:29:26;3.42;;;1.90;;
42036;SDS011;30340;52.004;5.908;2023-06-26T06:31:52;3.20;;;1.85;;
42036;SDS011;30340;52.004;5.908;2023-06-26T06:34:17;4.13;;;2.10;;
42036;SDS011;30340;52.004;5.908;2023-06-26T06:36:43;4.13;;;2.05;;
42036;SDS011;30340;52.004;5.908;2023-06-26T06:39:08;3.25;;;2.17;;
42036;SDS011;30340;52.004;5.908;2023-06-26T06:41:34;2.58;;;1.75;;
42036;SDS011;30340;52.004;5.908;2023-06-26T06:44:00;3.63;;;1.92;;
42036;SDS011;30340;52.004;5.908;2023-06-26T06:46:25;3.83;;;1.80;;
42036;SDS011;30340;52.004;5.908;2023-06-26T06:48:52;3.53;;;1.88;;
42036;SDS011;30340;52.004;5.908;2023-06-26T06:51:18;2.53;;;1.90;;
42036;SDS011;30340;52.004;5.908;2023-06-26T06:53:43;3.75;;;2.20;;
42036;SDS011;30340;52.004;5.908;2023-06-26T06:56:09;2.47;;;1.92;;
42036;SDS011;30340;52.004;5.908;2023-06-26T06:58:35;6.20;;;2.30;;
42036;SDS011;30340;52.004;5.908;2023-06-26T07:01:01;3.65;;;2.10;;
42036;SDS011;30340;52.004;5.908;2023-06-26T07:03:29;4.05;;;2.42;;
42036;SDS011;30340;52.004;5.908;2023-06-26T07:05:55;3.72;;;2.15;;
42036;SDS011;30340;52.004;5.908;2023-06-26T07:08:21;3.50;;;2.20;;
42036;SDS011;30340;52.004;5.908;2023-06-26T07:10:47;4.60;;;1.80;;
42036;SDS011;30340;52.004;5.908;2023-06-26T07:13:12;2.22;;;1.88;;
42036;SDS011;30340;52.004;5.908;2023-06-26T07:15:38;3.95;;;2.03;;
42036;SDS011;30340;52.004;5.908;2023-06-26T07:18:04;4.40;;;2.25;;
42036;SDS011;30340;52.004;5.908;2023-06-26T07:20:30;3.17;;;1.88;;
42036;SDS011;30340;52.004;5.908;2023-06-26T07:22:55;3.38;;;1.90;;
42036;SDS011;30340;52.004;5.908;2023-06-26T07:25:21;3.40;;;2.22;;
42036;SDS011;30340;52.004;5.908;2023-06-26T07:27:47;2.17;;;1.73;;
42036;SDS011;30340;52.004;5.908;2023-06-26T07:30:12;2.85;;;1.83;;
42036;SDS011;30340;52.004;5.908;2023-06-26T07:32:38;2.25;;;1.77;;
42036;SDS011;30340;52.004;5.908;2023-06-26T07:35:05;2.38;;;1.73;;
42036;SDS011;30340;52.004;5.908;2023-06-26T07:37:31;2.65;;;1.90;;
42036;SDS011;30340;52.004;5.908;2023-06-26T07:39:57;2.38;;;1.67;;
42036;SDS011;30340;52.004;5.908;2023-06-26T07:42:23;4.28;;;1.75;;
42036;SDS011;30340;52.004;5.908;2023-06-26T07:44:48;2.67;;;1.98;;
42036;SDS011;30340;52.004;5.908;2023-06-26T07:47:14;2.40;;;1.65;;
42036;SDS011;30340;52.004;5.908;2023-06-26T07:49:40;4.00;;;1.98;;
42036;SDS011;30340;52.004;5.908;2023-06-26T07:52:06;3.20;;;2.00;;
42036;SDS011;30340;52.004;5.908;2023-06-26T07:54:32;4.32;;;2.13;;
42036;SDS011;30340;52.004;5.908;2023-06-26T07:56:58;3.70;;;1.85;;
42036;SDS011;30340;52.004;5.908;2023-06-26T07:59:29;2.67;;;1.95;;
42036;SDS011;30340;52.004;5.908;2023-06-26T08:01:56;2.60;;;1.95;;
42036;SDS011;30340;52.004;5.908;2023-06-26T08:04:26;3.15;;;1.98;;
42036;SDS011;30340;52.004;5.908;2023-06-26T08:06:55;4.32;;;1.98;;
42036;SDS011;30340;52.004;5.908;2023-06-26T08:09:23;3.30;;;1.95;;
42036;SDS011;30340;52.004;5.908;2023-06-26T08:11:49;2.72;;;1.98;;
42036;SDS011;30340;52.004;5.908;2023-06-26T08:14:15;2.45;;;1.60;;
42036;SDS011;30340;52.004;5.908;2023-06-26T08:16:42;3.28;;;1.70;;
42036;SDS011;30340;52.004;5.908;2023-06-26T08:19:09;2.05;;;1.45;;
42036;SDS011;30340;52.004;5.908;2023-06-26T08:21:35;3.00;;;1.80;;
42036;SDS011;30340;52.004;5.908;2023-06-26T08:24:01;5.07;;;1.90;;
42036;SDS011;30340;52.004;5.908;2023-06-26T08:26:27;3.85;;;1.60;;
42036;SDS011;30340;52.004;5.908;2023-06-26T08:28:53;3.28;;;2.00;;
42036;SDS011;30340;52.004;5.908;2023-06-26T08:31:19;3.72;;;2.00;;
42036;SDS011;30340;52.004;5.908;2023-06-26T08:33:45;2.53;;;1.90;;
42036;SDS011;30340;52.004;5.908;2023-06-26T08:36:11;4.10;;;1.80;;
42036;SDS011;30340;52.004;5.908;2023-06-26T08:38:36;2.28;;;1.70;;
42036;SDS011;30340;52.004;5.908;2023-06-26T08:41:05;2.42;;;1.63;;
42036;SDS011;30340;52.004;5.908;2023-06-26T08:43:31;2.92;;;1.98;;
42036;SDS011;30340;52.004;5.908;2023-06-26T08:45:56;3.67;;;2.28;;
42036;SDS011;30340;52.004;5.908;2023-06-26T08:48:22;3.17;;;1.88;;
42036;SDS011;30340;52.004;5.908;2023-06-26T08:50:49;2.60;;;1.85;;
42036;SDS011;30340;52.004;5.908;2023-06-26T08:55:52;3.33;;;1.98;;
42036;SDS011;30340;52.004;5.908;2023-06-26T08:58:18;2.67;;;1.60;;
42036;SDS011;30340;52.004;5.908;2023-06-26T09:00:44;3.08;;;2.00;;
42036;SDS011;30340;52.004;5.908;2023-06-26T09:03:10;2.42;;;1.80;;
42036;SDS011;30340;52.004;5.908;2023-06-26T09:05:37;3.15;;;1.83;;
42036;SDS011;30340;52.004;5.908;2023-06-26T09:08:03;3.80;;;1.67;;
42036;SDS011;30340;52.004;5.908;2023-06-26T09:10:29;2.85;;;1.92;;
42036;SDS011;30340;52.004;5.908;2023-06-26T09:12:57;4.47;;;1.75;;
42036;SDS011;30340;52.004;5.908;2023-06-26T09:15:23;3.55;;;1.88;;
42036;SDS011;30340;52.004;5.908;2023-06-26T09:17:49;3.30;;;1.90;;
42036;SDS011;30340;52.004;5.908;2023-06-26T09:20:15;3.30;;;1.63;;
42036;SDS011;30340;52.004;5.908;2023-06-26T09:22:42;2.63;;;1.80;;
42036;SDS011;30340;52.004;5.908;2023-06-26T09:25:12;3.08;;;1.40;;
42036;SDS011;30340;52.004;5.908;2023-06-26T09:27:38;3.47;;;1.63;;
42036;SDS011;30340;52.004;5.908;2023-06-26T09:30:05;1.73;;;1.30;;
42036;SDS011;30340;52.004;5.908;2023-06-26T09:32:33;2.08;;;1.20;;
42036;SDS011;30340;52.004;5.908;2023-06-26T09:35:02;2.17;;;1.27;;
42036;SDS011;30340;52.004;5.908;2023-06-26T09:37:29;2.35;;;1.15;;
42036;SDS011;30340;52.004;5.908;2023-06-26T09:39:55;2.53;;;1.23;;
42036;SDS011;30340;52.004;5.908;2023-06-26T09:42:20;3.13;;;1.23;;
42036;SDS011;30340;52.004;5.908;2023-06-26T09:44:47;1.75;;;1.00;;
42036;SDS011;30340;52.004;5.908;2023-06-26T09:47:15;4.20;;;1.17;;
42036;SDS011;30340;52.004;5.908;2023-06-26T09:49:42;1.27;;;0.90;;
42036;SDS011;30340;52.004;5.908;2023-06-26T09:52:08;1.95;;;1.00;;
42036;SDS011;30340;52.004;5.908;2023-06-26T09:54:34;3.50;;;1.10;;
42036;SDS011;30340;52.004;5.908;2023-06-26T09:57:10;2.97;;;1.00;;
42036;SDS011;30340;52.004;5.908;2023-06-26T09:59:41;2.50;;;0.90;;
42036;SDS011;30340;52.004;5.908;2023-06-26T10:02:10;2.80;;;1.42;;
42036;SDS011;30340;52.004;5.908;2023-06-26T10:04:37;2.17;;;0.90;;
42036;SDS011;30340;52.004;5.908;2023-06-26T10:07:04;1.63;;;0.90;;
42036;SDS011;30340;52.004;5.908;2023-06-26T10:09:35;2.55;;;1.00;;
42036;SDS011;30340;52.004;5.908;2023-06-26T10:12:06;1.30;;;0.82;;
42036;SDS011;30340;52.004;5.908;2023-06-26T10:14:37;4.00;;;1.08;;
42036;SDS011;30340;52.004;5.908;2023-06-26T10:17:07;2.95;;;1.00;;
42036;SDS011;30340;52.004;5.908;2023-06-26T10:19:39;1.63;;;1.00;;
42036;SDS011;30340;52.004;5.908;2023-06-26T10:22:07;1.90;;;1.00;;
42036;SDS011;30340;52.004;5.908;2023-06-26T10:24:35;2.58;;;1.00;;
42036;SDS011;30340;52.004;5.908;2023-06-26T10:27:02;2.40;;;1.13;;
42036;SDS011;30340;52.004;5.908;2023-06-26T10:32:00;2.08;;;0.98;;
42036;SDS011;30340;52.004;5.908;2023-06-26T10:34:29;1.98;;;1.15;;
42036;SDS011;30340;52.004;5.908;2023-06-26T10:36:58;2.42;;;1.10;;
42036;SDS011;30340;52.004;5.908;2023-06-26T10:39:48;2.47;;;1.00;;
42036;SDS011;30340;52.004;5.908;2023-06-26T10:42:15;2.00;;;0.90;;
42036;SDS011;30340;52.004;5.908;2023-06-26T10:44:46;2.63;;;1.05;;
42036;SDS011;30340;52.004;5.908;2023-06-26T10:50:27;2.05;;;1.10;;
42036;SDS011;30340;52.004;5.908;2023-06-26T10:53:07;1.00;;;0.90;;
42036;SDS011;30340;52.004;5.908;2023-06-26T10:55:34;5.18;;;1.20;;
42036;SDS011;30340;52.004;5.908;2023-06-26T10:58:01;1.70;;;0.90;;
42036;SDS011;30340;52.004;5.908;2023-06-26T11:00:27;1.33;;;1.00;;
42036;SDS011;30340;52.004;5.908;2023-06-26T11:02:53;2.17;;;0.90;;
42036;SDS011;30340;52.004;5.908;2023-06-26T11:05:32;1.77;;;0.90;;
42036;SDS011;30340;52.004;5.908;2023-06-26T11:08:08;1.60;;;0.85;;
42036;SDS011;30340;52.004;5.908;2023-06-26T11:13:15;1.70;;;1.00;;
42036;SDS011;30340;52.004;5.908;2023-06-26T11:15:43;1.33;;;1.00;;
42036;SDS011;30340;52.004;5.908;2023-06-26T11:18:12;1.15;;;0.98;;
42036;SDS011;30340;52.004;5.908;2023-06-26T11:20:38;2.13;;;1.02;;
42036;SDS011;30340;52.004;5.908;2023-06-26T11:23:03;2.35;;;0.82;;
42036;SDS011;30340;52.004;5.908;2023-06-26T11:25:33;2.67;;;0.90;;
42036;SDS011;30340;52.004;5.908;2023-06-26T11:28:00;1.45;;;0.80;;
42036;SDS011;30340;52.004;5.908;2023-06-26T11:30:26;1.63;;;0.80;;
42036;SDS011;30340;52.004;5.908;2023-06-26T11:32:52;1.13;;;0.88;;
42036;SDS011;30340;52.004;5.908;2023-06-26T11:35:24;1.27;;;0.90;;
42036;SDS011;30340;52.004;5.908;2023-06-26T11:38:02;1.15;;;0.77;;
42036;SDS011;30340;52.004;5.908;2023-06-26T11:40:32;1.08;;;0.68;;
42036;SDS011;30340;52.004;5.908;2023-06-26T11:42:59;1.70;;;0.88;;
42036;SDS011;30340;52.004;5.908;2023-06-26T11:45:32;1.40;;;0.80;;
42036;SDS011;30340;52.004;5.908;2023-06-26T11:47:58;1.35;;;0.82;;
42036;SDS011;30340;52.004;5.908;2023-06-26T11:50:25;2.15;;;0.90;;
42036;SDS011;30340;52.004;5.908;2023-06-26T11:52:57;1.73;;;0.95;;
42036;SDS011;30340;52.004;5.908;2023-06-26T11:55:24;1.88;;;1.00;;
42036;SDS011;30340;52.004;5.908;2023-06-26T11:57:55;1.92;;;0.90;;
42036;SDS011;30340;52.004;5.908;2023-06-26T12:00:22;1.80;;;1.00;;
42036;SDS011;30340;52.004;5.908;2023-06-26T12:02:48;1.35;;;0.80;;
42036;SDS011;30340;52.004;5.908;2023-06-26T12:05:15;1.35;;;1.00;;
42036;SDS011;30340;52.004;5.908;2023-06-26T12:07:47;1.67;;;1.00;;
42036;SDS011;30340;52.004;5.908;2023-06-26T12:10:14;1.63;;;0.82;;
42036;SDS011;30340;52.004;5.908;2023-06-26T12:12:41;2.40;;;1.20;;
42036;SDS011;30340;52.004;5.908;2023-06-26T12:15:08;1.17;;;0.90;;
42036;SDS011;30340;52.004;5.908;2023-06-26T12:17:38;1.40;;;0.88;;
42036;SDS011;30340;52.004;5.908;2023-06-26T12:20:04;1.58;;;1.15;;
42036;SDS011;30340;52.004;5.908;2023-06-26T12:22:35;1.23;;;0.82;;
42036;SDS011;30340;52.004;5.908;2023-06-26T12:25:00;1.63;;;1.05;;
42036;SDS011;30340;52.004;5.908;2023-06-26T12:27:26;1.70;;;0.98;;
42036;SDS011;30340;52.004;5.908;2023-06-26T12:29:53;1.50;;;1.00;;
42036;SDS011;30340;52.004;5.908;2023-06-26T12:32:19;2.38;;;1.00;;
42036;SDS011;30340;52.004;5.908;2023-06-26T12:34:49;1.70;;;1.00;;
42036;SDS011;30340;52.004;5.908;2023-06-26T12:37:15;1.67;;;0.90;;
42036;SDS011;30340;52.004;5.908;2023-06-26T12:39:45;2.97;;;0.80;;
42036;SDS011;30340;52.004;5.908;2023-06-26T12:42:16;2.83;;;1.15;;
42036;SDS011;30340;52.004;5.908;2023-06-26T12:44:43;2.17;;;1.10;;
42036;SDS011;30340;52.004;5.908;2023-06-26T12:47:09;1.63;;;1.00;;
42036;SDS011;30340;52.004;5.908;2023-06-26T12:49:39;1.35;;;0.90;;
42036;SDS011;30340;52.004;5.908;2023-06-26T12:52:07;3.78;;;1.05;;
42036;SDS011;30340;52.004;5.908;2023-06-26T12:54:34;1.75;;;0.90;;
42036;SDS011;30340;52.004;5.908;2023-06-26T12:57:00;1.35;;;0.90;;
42036;SDS011;30340;52.004;5.908;2023-06-26T12:59:26;1.27;;;0.95;;
42036;SDS011;30340;52.004;5.908;2023-06-26T13:01:52;1.08;;;0.85;;
42036;SDS011;30340;52.004;5.908;2023-06-26T13:04:18;2.35;;;1.00;;
42036;SDS011;30340;52.004;5.908;2023-06-26T13:06:44;1.98;;;1.00;;
42036;SDS011;30340;52.004;5.908;2023-06-26T13:09:09;2.03;;;0.75;;
42036;SDS011;30340;52.004;5.908;2023-06-26T13:11:36;0.82;;;0.80;;
42036;SDS011;30340;52.004;5.908;2023-06-26T13:14:02;2.85;;;1.00;;
42036;SDS011;30340;52.004;5.908;2023-06-26T13:16:29;1.02;;;0.80;;
42036;SDS011;30340;52.004;5.908;2023-06-26T13:18:54;2.03;;;0.98;;
42036;SDS011;30340;52.004;5.908;2023-06-26T13:21:21;1.10;;;0.73;;
42036;SDS011;30340;52.004;5.908;2023-06-26T13:23:46;0.90;;;0.55;;
42036;SDS011;30340;52.004;5.908;2023-06-26T13:26:12;1.75;;;0.90;;
42036;SDS011;30340;52.004;5.908;2023-06-26T13:28:38;1.10;;;0.80;;
42036;SDS011;30340;52.004;5.908;2023-06-26T13:31:04;1.35;;;0.80;;
42036;SDS011;30340;52.004;5.908;2023-06-26T13:33:30;1.20;;;1.00;;
42036;SDS011;30340;52.004;5.908;2023-06-26T13:35:56;2.35;;;0.90;;
42036;SDS011;30340;52.004;5.908;2023-06-26T13:38:22;1.25;;;0.80;;
42036;SDS011;30340;52.004;5.908;2023-06-26T13:40:50;1.45;;;0.88;;
42036;SDS011;30340;52.004;5.908;2023-06-26T13:43:16;1.45;;;0.85;;
42036;SDS011;30340;52.004;5.908;2023-06-26T13:45:42;1.60;;;0.60;;
42036;SDS011;30340;52.004;5.908;2023-06-26T13:48:08;1.63;;;0.73;;
42036;SDS011;30340;52.004;5.908;2023-06-26T13:50:33;1.70;;;0.70;;
42036;SDS011;30340;52.004;5.908;2023-06-26T13:52:59;1.23;;;0.70;;
42036;SDS011;30340;52.004;5.908;2023-06-26T13:55:25;1.25;;;0.85;;
42036;SDS011;30340;52.004;5.908;2023-06-26T13:57:51;0.60;;;0.60;;
42036;SDS011;30340;52.004;5.908;2023-06-26T14:00:16;0.93;;;0.70;;
42036;SDS011;30340;52.004;5.908;2023-06-26T14:02:45;1.77;;;0.70;;
42036;SDS011;30340;52.004;5.908;2023-06-26T14:05:11;0.50;;;0.50;;
42036;SDS011;30340;52.004;5.908;2023-06-26T14:07:37;0.75;;;0.50;;
42036;SDS011;30340;52.004;5.908;2023-06-26T14:10:03;2.40;;;0.75;;
42036;SDS011;30340;52.004;5.908;2023-06-26T14:12:30;0.93;;;0.60;;
42036;SDS011;30340;52.004;5.908;2023-06-26T14:14:57;2.70;;;0.93;;
42036;SDS011;30340;52.004;5.908;2023-06-26T14:17:23;1.35;;;0.80;;
42036;SDS011;30340;52.004;5.908;2023-06-26T14:19:51;1.20;;;0.68;;
42036;SDS011;30340;52.004;5.908;2023-06-26T14:22:19;0.70;;;0.47;;
42036;SDS011;30340;52.004;5.908;2023-06-26T14:24:45;1.10;;;0.73;;
42036;SDS011;30340;52.004;5.908;2023-06-26T14:27:12;1.23;;;0.90;;
42036;SDS011;30340;52.004;5.908;2023-06-26T14:29:37;1.88;;;0.60;;
42036;SDS011;30340;52.004;5.908;2023-06-26T14:32:03;1.08;;;0.65;;
42036;SDS011;30340;52.004;5.908;2023-06-26T14:34:29;2.55;;;0.80;;
42036;SDS011;30340;52.004;5.908;2023-06-26T14:36:55;1.75;;;0.82;;
42036;SDS011;30340;52.004;5.908;2023-06-26T14:39:20;1.20;;;0.60;;
42036;SDS011;30340;52.004;5.908;2023-06-26T14:41:46;1.67;;;0.80;;
42036;SDS011;30340;52.004;5.908;2023-06-26T14:44:15;1.83;;;0.60;;
42036;SDS011;30340;52.004;5.908;2023-06-26T14:46:41;1.77;;;0.80;;
42036;SDS011;30340;52.004;5.908;2023-06-26T14:49:07;2.03;;;0.90;;
42036;SDS011;30340;52.004;5.908;2023-06-26T14:51:33;1.13;;;0.85;;
42036;SDS011;30340;52.004;5.908;2023-06-26T14:53:59;0.90;;;0.68;;
42036;SDS011;30340;52.004;5.908;2023-06-26T14:56:25;1.10;;;0.70;;
42036;SDS011;30340;52.004;5.908;2023-06-26T14:58:51;1.38;;;0.52;;
42036;SDS011;30340;52.004;5.908;2023-06-26T15:01:17;1.23;;;0.68;;
42036;SDS011;30340;52.004;5.908;2023-06-26T15:03:44;0.95;;;0.50;;
42036;SDS011;30340;52.004;5.908;2023-06-26T15:06:11;1.40;;;0.70;;